Time;durP1;ratioP1;P1;durP2;ratioP2;P2;SDS_P1;SDS_P2;PMS_P1;PMS_P2;Temp;Humidity;BMP_temperature;BMP_pressure;BME280_temperature;BME280_humidity;BME280_pressure;Samples;Min_cycle;Max_cycle;Signal;HPM_P1;HPM_P2
2021/08/28 00:01:33;;;;;;;9.60;5.32;;;;;;;14.16;100.00;97811.03;4986166;28;20045;-63
2021/08/28 00:03:58;;;;;;;8.73;4.63;;;;;;;14.28;98.81;97806.88;4987303;28;20836;-65
2021/08/28 00:06:23;;;;;;;5.63;3.40;;;;;;;14.32;100.00;97802.25;4984997;28;20060;-64
2021/08/28 00:08:49;;;;;;;8.95;5.03;;;;;;;14.42;98.22;97809.50;4992466;28;20030;-61
2021/08/28 00:11:14;;;;;;;7.07;4.47;;;;;;;14.69;96.48;97808.81;4989563;28;20038;-61
2021/08/28 00:13:39;;;;;;;5.93;3.80;;;;;;;14.97;94.70;97809.75;4987850;28;20045;-65
2021/08/28 00:16:05;;;;;;;9.32;4.57;;;;;;;14.25;98.47;97812.28;4986001;28;20046;-61
2021/08/28 00:18:30;;;;;;;8.30;4.75;;;;;;;14.38;98.24;97817.66;4984179;28;20033;-61
2021/08/28 00:20:55;;;;;;;6.85;4.32;;;;;;;14.03;100.00;97817.94;4999983;28;20380;-63
2021/08/28 00:23:21;;;;;;;7.07;3.42;;;;;;;14.76;97.50;97809.28;4987394;28;20656;-66
2021/08/28 00:25:46;;;;;;;5.43;3.90;;;;;;;14.59;97.50;97810.28;4986251;28;20149;-62
2021/08/28 00:28:12;;;;;;;6.03;3.53;;;;;;;14.34;99.06;97806.50;4988692;28;20034;-61
2021/08/28 00:30:37;;;;;;;4.93;3.55;;;;;;;14.20;98.98;97809.09;4989818;28;20048;-62
2021/08/28 00:33:14;;;;;;;7.88;4.25;;;;;;;14.18;98.88;97810.97;4990282;28;20045;-65
2021/08/28 00:35:40;;;;;;;11.80;4.22;;;;;;;14.00;98.24;97800.59;4988893;28;20038;-65
2021/08/28 00:38:05;;;;;;;8.00;4.40;;;;;;;14.30;96.51;97807.63;4991569;28;20032;-64
2021/08/28 00:40:32;;;;;;;5.28;3.28;;;;;;;14.33;97.44;97810.03;4992231;28;20077;-61
2021/08/28 00:42:57;;;;;;;5.90;3.72;;;;;;;14.18;97.79;97809.16;4989254;28;20026;-64
2021/08/28 00:45:29;;;;;;;7.93;4.55;;;;;;;13.64;100.00;97812.28;4993065;28;20039;-62
2021/08/28 00:48:00;;;;;;;6.30;4.40;;;;;;;13.94;98.79;97813.22;4994328;28;20399;-65
2021/08/28 00:50:26;;;;;;;5.70;3.77;;;;;;;13.87;99.25;97823.22;4994121;28;20057;-65
2021/08/28 00:52:52;;;;;;;11.90;4.88;;;;;;;13.52;100.00;97823.44;4990293;28;20026;-63
2021/08/28 00:55:18;;;;;;;8.68;4.60;;;;;;;13.84;100.00;97829.50;4991186;28;20199;-63
2021/08/28 00:57:43;;;;;;;9.05;5.10;;;;;;;13.82;99.59;97827.88;4989262;28;20572;-61
2021/08/28 01:00:09;;;;;;;5.28;3.67;;;;;;;13.92;99.87;97833.47;4992859;28;20403;-65
2021/08/28 01:02:40;;;;;;;5.70;3.78;;;;;;;14.30;97.53;97819.88;4990693;28;20022;-63
2021/08/28 01:05:31;;;;;;;8.57;4.43;;;;;;;13.82;100.00;97825.25;4994067;28;20018;-65
2021/08/28 01:08:18;;;;;;;4.82;3.50;;;;;;;13.88;100.00;97824.91;4989805;28;20574;-62
2021/08/28 01:11:09;;;;;;;7.63;4.20;;;;;;;13.80;100.00;97814.00;4991025;28;20038;-63
2021/08/28 01:13:36;;;;;;;6.55;3.40;;;;;;;14.07;99.20;97820.28;4986934;28;20088;-65
2021/08/28 01:16:04;;;;;;;7.07;4.57;;;;;;;13.90;99.33;97822.22;4993984;28;20058;-61
2021/08/28 01:18:30;;;;;;;7.53;3.60;;;;;;;13.49;100.00;97823.59;4992785;28;20037;-61
2021/08/28 01:21:07;;;;;;;6.57;4.43;;;;;;;13.38;100.00;97833.81;4991733;28;20274;-65
2021/08/28 01:23:34;;;;;;;3.53;2.40;;;;;;;14.00;100.00;97829.44;4990538;28;20116;-62
2021/08/28 01:26:07;;;;;;;8.18;3.65;;;;;;;14.08;96.70;97826.41;4989907;28;20038;-62
2021/08/28 01:28:37;;;;;;;5.88;3.08;;;;;;;14.12;99.16;97827.06;4992949;28;20139;-65
2021/08/28 01:31:03;;;;;;;6.50;3.63;;;;;;;13.72;100.00;97830.19;4990923;28;20619;-63
2021/08/28 01:33:29;;;;;;;7.18;3.25;;;;;;;13.91;99.90;97829.97;4994893;28;20022;-62
2021/08/28 01:35:55;;;;;;;7.97;3.70;;;;;;;13.82;100.00;97826.13;4988872;28;20049;-64
2021/08/28 01:38:21;;;;;;;6.82;3.60;;;;;;;13.75;100.00;97829.16;4987728;28;20030;-63
2021/08/28 01:40:47;;;;;;;5.25;3.35;;;;;;;14.10;98.40;97834.16;4989786;28;20041;-61
2021/08/28 01:43:16;;;;;;;5.72;2.55;;;;;;;13.97;99.80;97837.50;4993262;28;20034;-64
2021/08/28 01:45:42;;;;;;;5.88;3.65;;;;;;;13.78;99.21;97832.44;4992462;28;20072;-62
2021/08/28 01:48:07;;;;;;;6.18;4.03;;;;;;;13.55;100.00;97833.75;4993321;28;20030;-63
2021/08/28 01:50:34;;;;;;;5.40;2.95;;;;;;;14.02;99.64;97838.09;4993671;28;20038;-63
2021/08/28 01:52:59;;;;;;;5.75;3.17;;;;;;;14.10;98.47;97829.78;4990427;28;20494;-63
2021/08/28 01:55:25;;;;;;;5.85;3.67;;;;;;;13.92;99.10;97834.28;4991109;28;20599;-62
2021/08/28 01:57:50;;;;;;;5.80;3.47;;;;;;;13.79;99.62;97830.69;4993062;28;20343;-63
2021/08/28 02:00:16;;;;;;;5.10;3.35;;;;;;;13.79;100.00;97820.19;4991662;28;20029;-62
2021/08/28 02:02:41;;;;;;;12.02;4.35;;;;;;;13.72;100.00;97821.47;4991465;28;20465;-63
2021/08/28 02:05:10;;;;;;;6.18;3.75;;;;;;;13.59;100.00;97821.31;4992944;28;20029;-61
2021/08/28 02:08:05;;;;;;;7.70;4.13;;;;;;;13.86;100.00;97821.53;4991678;28;20034;-63
2021/08/28 02:10:44;;;;;;;7.30;3.83;;;;;;;13.68;100.00;97826.88;4993431;28;20057;-62
2021/08/28 02:13:34;;;;;;;6.63;3.10;;;;;;;14.04;98.20;97830.09;4988841;28;20034;-64
2021/08/28 02:16:08;;;;;;;6.57;3.70;;;;;;;13.60;100.00;97836.97;4987227;28;20537;-61
2021/08/28 02:18:44;;;;;;;6.85;4.15;;;;;;;13.59;100.00;97832.66;4988945;28;20032;-63
2021/08/28 02:21:10;;;;;;;4.88;3.35;;;;;;;13.74;100.00;97832.72;4989674;28;20061;-62
2021/08/28 02:23:43;;;;;;;7.32;2.65;;;;;;;14.05;99.33;97832.66;4990588;28;20308;-62
2021/08/28 02:26:11;;;;;;;6.15;3.83;;;;;;;14.12;96.92;97824.44;4988965;28;20034;-62
2021/08/28 02:28:48;;;;;;;5.55;3.15;;;;;;;14.22;96.91;97828.19;4990176;28;20033;-65
2021/08/28 02:31:16;;;;;;;5.07;3.40;;;;;;;14.27;96.94;97824.38;4988209;28;20050;-62
2021/08/28 02:33:43;;;;;;;5.30;3.58;;;;;;;14.06;97.55;97823.84;4989969;28;20041;-60
2021/08/28 02:36:11;;;;;;;3.35;2.50;;;;;;;14.19;97.84;97823.13;4991695;28;20065;-63
2021/08/28 02:38:37;;;;;;;5.80;3.58;;;;;;;14.07;98.05;97825.53;4988362;28;20687;-60
2021/08/28 02:41:06;;;;;;;3.55;2.40;;;;;;;14.61;96.50;97818.91;4990427;28;20986;-63
2021/08/28 02:43:31;;;;;;;3.95;2.10;;;;;;;14.97;94.30;97815.84;4997940;28;20034;-61
2021/08/28 02:45:59;;;;;;;5.15;3.47;;;;;;;14.13;97.21;97818.25;4985951;28;20540;-61
2021/08/28 02:48:26;;;;;;;5.53;3.83;;;;;;;14.12;97.71;97821.81;4987495;28;20061;-60
2021/08/28 02:50:54;;;;;;;6.97;3.63;;;;;;;14.58;93.92;97824.38;4985049;28;20042;-61
2021/08/28 02:53:22;;;;;;;5.85;3.55;;;;;;;14.15;97.40;97825.13;4989107;28;20022;-61
2021/08/28 02:55:49;;;;;;;4.80;3.50;;;;;;;14.35;95.07;97818.66;4988005;28;20049;-64
2021/08/28 02:58:15;;;;;;;5.40;3.80;;;;;;;13.74;99.33;97817.81;4987915;28;20026;-60
2021/08/28 03:00:45;;;;;;;6.20;3.60;;;;;;;13.71;100.00;97817.16;4990436;28;20046;-61
2021/08/28 03:03:15;;;;;;;5.70;3.58;;;;;;;13.92;99.73;97823.81;4989576;28;20026;-61
2021/08/28 03:05:44;;;;;;;5.80;3.92;;;;;;;13.84;99.78;97823.38;4987037;28;20040;-61
2021/08/28 03:08:10;;;;;;;4.97;3.50;;;;;;;14.00;99.09;97811.09;4990949;28;20049;-60
2021/08/28 03:10:36;;;;;;;3.95;2.83;;;;;;;14.07;98.76;97815.03;4987413;28;20738;-62
2021/08/28 03:13:01;;;;;;;4.85;3.72;;;;;;;14.01;98.74;97814.56;4987180;28;20607;-62
2021/08/28 03:15:27;;;;;;;6.65;3.90;;;;;;;13.96;99.43;97824.47;4987682;28;20108;-61
2021/08/28 03:17:52;;;;;;;6.15;4.00;;;;;;;13.90;99.41;97827.47;4989377;28;20079;-61
2021/08/28 03:20:18;;;;;;;5.65;3.85;;;;;;;13.79;100.00;97822.81;4987452;28;20093;-64
2021/08/28 03:22:45;;;;;;;7.70;3.70;;;;;;;14.02;99.28;97824.09;4989069;28;20034;-60
2021/08/28 03:25:12;;;;;;;8.80;4.70;;;;;;;13.79;99.79;97828.91;4988248;28;20018;-62
2021/08/28 03:27:40;;;;;;;7.03;3.65;;;;;;;13.84;99.62;97826.00;4990552;28;20515;-61
2021/08/28 03:30:12;;;;;;;6.07;4.00;;;;;;;13.68;100.00;97824.25;4991582;28;20033;-61
2021/08/28 03:32:41;;;;;;;4.90;3.10;;;;;;;13.78;100.00;97813.25;4988680;28;20037;-62
2021/08/28 03:35:09;;;;;;;5.30;3.80;;;;;;;13.87;99.45;97810.09;4986750;28;20034;-63
2021/08/28 03:37:35;;;;;;;6.10;4.10;;;;;;;13.77;100.00;97809.81;4989953;28;20163;-63
2021/08/28 03:40:01;;;;;;;6.88;4.47;;;;;;;13.90;98.89;97816.97;4987973;28;20699;-62
2021/08/28 03:42:26;;;;;;;8.80;4.95;;;;;;;13.67;100.00;97812.09;4984873;28;20066;-62
2021/08/28 03:44:56;;;;;;;7.45;4.35;;;;;;;14.00;98.15;97808.47;4987198;28;20408;-61
2021/08/28 03:47:22;;;;;;;6.47;3.50;;;;;;;14.01;97.97;97807.53;4990410;28;20109;-64
2021/08/28 03:49:47;;;;;;;5.30;3.80;;;;;;;13.81;99.35;97818.34;4988986;28;20034;-61
2021/08/28 03:52:12;;;;;;;9.15;4.70;;;;;;;13.76;99.47;97825.59;4987737;28;20153;-61
2021/08/28 03:54:38;;;;;;;6.07;4.00;;;;;;;13.83;98.96;97816.47;4989746;28;20036;-62
2021/08/28 03:57:03;;;;;;;5.22;3.45;;;;;;;13.87;99.43;97823.22;4988069;28;20046;-63
2021/08/28 03:59:28;;;;;;;5.78;3.78;;;;;;;13.88;100.00;97830.16;4987661;28;20025;-64
2021/08/28 04:01:54;;;;;;;5.65;3.88;;;;;;;13.96;99.34;97833.19;4987848;28;20050;-60
2021/08/28 04:04:21;;;;;;;6.22;4.30;;;;;;;14.25;95.71;97822.78;4991432;28;20029;-62
2021/08/28 04:06:47;;;;;;;5.00;3.50;;;;;;;13.99;98.15;97826.94;4990813;28;20049;-62
2021/08/28 04:09:12;;;;;;;8.20;4.22;;;;;;;13.64;100.00;97832.41;4991895;28;20034;-61
2021/08/28 04:11:37;;;;;;;4.25;2.83;;;;;;;14.12;99.27;97827.06;4991452;28;20406;-61
2021/08/28 04:14:03;;;;;;;5.30;3.08;;;;;;;14.11;99.26;97831.44;4991565;28;20038;-61
2021/08/28 04:16:28;;;;;;;4.90;3.47;;;;;;;13.97;99.24;97828.78;4990524;28;20042;-64
2021/08/28 04:18:53;;;;;;;3.83;2.90;;;;;;;13.98;99.57;97836.56;4993102;28;20321;-62
2021/08/28 04:21:19;;;;;;;3.88;2.22;;;;;;;14.58;96.20;97834.88;4991994;28;20045;-62
2021/08/28 04:23:44;;;;;;;4.90;2.58;;;;;;;14.57;94.85;97835.75;4993184;28;20025;-63
2021/08/28 04:26:09;;;;;;;6.25;2.72;;;;;;;14.21;98.05;97843.09;4996881;28;20044;-62
2021/08/28 04:28:35;;;;;;;3.50;2.47;;;;;;;14.47;96.67;97835.47;4991873;28;20050;-63
2021/08/28 04:31:00;;;;;;;5.43;3.90;;;;;;;14.10;98.40;97849.88;4990842;28;20033;-61
2021/08/28 04:33:26;;;;;;;6.30;4.55;;;;;;;14.17;96.01;97848.59;4991000;28;20029;-63
2021/08/28 04:35:51;;;;;;;5.35;3.22;;;;;;;14.13;97.32;97850.56;4992086;28;20105;-61
2021/08/28 04:38:16;;;;;;;5.38;3.42;;;;;;;14.49;95.66;97848.50;4990169;28;20595;-63
2021/08/28 04:40:42;;;;;;;6.03;4.40;;;;;;;14.36;96.03;97845.78;4992098;28;20647;-60
2021/08/28 04:43:07;;;;;;;9.48;4.40;;;;;;;13.92;100.00;97847.41;4990851;28;20037;-62
2021/08/28 04:45:33;;;;;;;6.78;4.43;;;;;;;14.14;98.58;97847.00;4991791;28;20069;-61
2021/08/28 04:47:58;;;;;;;8.00;5.00;;;;;;;13.88;98.78;97851.13;4995418;28;20440;-62
2021/08/28 04:50:23;;;;;;;5.68;3.42;;;;;;;14.29;97.55;97847.91;4992058;28;20029;-63
2021/08/28 04:52:51;;;;;;;6.47;3.67;;;;;;;14.00;98.92;97850.41;4995127;28;20022;-64
2021/08/28 04:55:16;;;;;;;5.63;3.85;;;;;;;14.15;97.73;97853.09;4994279;28;20161;-63
2021/08/28 04:57:42;;;;;;;6.68;4.00;;;;;;;14.16;97.12;97852.19;4989027;28;20054;-62
2021/08/28 05:00:08;;;;;;;4.70;3.38;;;;;;;14.40;96.00;97858.59;4988964;28;20401;-61
2021/08/28 05:02:33;;;;;;;6.30;3.78;;;;;;;14.02;98.40;97864.31;4988309;28;20022;-62
2021/08/28 05:04:58;;;;;;;4.15;2.65;;;;;;;14.72;93.86;97858.53;4991173;28;20045;-63
2021/08/28 05:07:23;;;;;;;6.05;4.10;;;;;;;14.31;96.37;97864.38;4988315;28;20038;-60
2021/08/28 05:09:49;;;;;;;6.78;4.00;;;;;;;14.30;96.33;97867.97;4991363;28;20030;-64
2021/08/28 05:12:14;;;;;;;6.18;4.00;;;;;;;14.00;97.98;97860.91;4987591;28;20107;-63
2021/08/28 05:14:40;;;;;;;8.13;4.90;;;;;;;13.94;97.93;97869.13;4987081;28;20056;-63
2021/08/28 05:17:06;;;;;;;6.13;3.80;;;;;;;14.18;97.64;97873.91;4990559;28;20042;-62
2021/08/28 05:19:32;;;;;;;5.95;4.15;;;;;;;14.36;95.91;97867.59;4989474;28;20033;-60
2021/08/28 05:22:00;;;;;;;6.40;4.22;;;;;;;14.15;97.35;97867.06;4992473;28;20061;-64
2021/08/28 05:24:25;;;;;;;4.28;3.50;;;;;;;14.50;96.38;97864.16;4990598;28;20030;-61
2021/08/28 05:26:51;;;;;;;8.57;4.60;;;;;;;14.17;96.76;97872.22;4974959;28;20050;-62
2021/08/28 05:29:16;;;;;;;9.38;4.45;;;;;;;13.92;97.96;97872.78;4989506;28;20641;-60
2021/08/28 05:31:41;;;;;;;5.88;4.68;;;;;;;13.86;97.43;97871.34;4989251;28;20045;-61
2021/08/28 05:34:07;;;;;;;7.95;4.75;;;;;;;14.35;96.04;97865.88;4991108;28;20022;-63
2021/08/28 05:36:32;;;;;;;6.78;4.80;;;;;;;14.26;96.22;97871.69;4999182;28;20184;-64
2021/08/28 05:38:57;;;;;;;11.30;5.25;;;;;;;14.55;94.63;97866.50;4990409;28;20129;-61
2021/08/28 05:41:23;;;;;;;5.15;3.45;;;;;;;14.53;96.08;97863.13;4991229;28;20116;-63
2021/08/28 05:43:48;;;;;;;3.78;2.78;;;;;;;14.70;94.95;97870.88;4989755;28;20125;-63
2021/08/28 05:46:14;;;;;;;5.18;3.67;;;;;;;14.56;95.38;97873.47;4988119;28;20424;-63
2021/08/28 05:48:39;;;;;;;8.60;4.22;;;;;;;14.93;93.92;97881.78;4988411;28;20042;-61
2021/08/28 05:51:04;;;;;;;5.00;3.63;;;;;;;14.79;94.89;97886.06;4989494;28;20177;-65
2021/08/28 05:53:30;;;;;;;8.15;3.45;;;;;;;14.67;95.57;97880.69;4987612;28;20557;-61
2021/08/28 05:55:55;;;;;;;7.90;4.75;;;;;;;14.79;93.19;97875.56;4987475;28;20073;-61
2021/08/28 05:58:20;;;;;;;6.45;3.42;;;;;;;15.17;92.58;97874.19;4989552;28;20624;-60
2021/08/28 06:00:46;;;;;;;5.32;3.95;;;;;;;15.10;93.51;97870.25;4990478;28;20068;-61
2021/08/28 06:03:11;;;;;;;5.57;3.75;;;;;;;14.77;96.31;97866.94;4990322;28;20034;-61
2021/08/28 06:05:36;;;;;;;5.20;3.90;;;;;;;14.97;95.63;97870.16;4991389;28;20030;-63
2021/08/28 06:08:02;;;;;;;5.53;4.35;;;;;;;15.14;92.97;97877.81;4989732;28;20033;-63
2021/08/28 06:10:27;;;;;;;5.60;3.50;;;;;;;16.03;87.93;97879.28;4990230;28;20065;-63
2021/08/28 06:12:55;;;;;;;5.78;3.45;;;;;;;16.15;87.40;97877.63;4992461;28;20080;-61
2021/08/28 06:15:20;;;;;;;5.18;3.63;;;;;;;15.23;90.79;97869.38;4988875;28;20084;-60
2021/08/28 06:17:48;;;;;;;6.85;3.75;;;;;;;15.19;90.62;97883.66;4988591;28;20495;-60
2021/08/28 06:20:13;;;;;;;6.50;4.20;;;;;;;15.17;92.79;97887.31;4987508;28;20100;-61
2021/08/28 06:22:38;;;;;;;8.20;3.75;;;;;;;15.21;92.11;97888.81;4988190;28;20120;-61
2021/08/28 06:25:04;;;;;;;7.20;3.92;;;;;;;15.11;92.45;97890.31;4987406;28;20026;-61
2021/08/28 06:27:29;;;;;;;5.60;3.47;;;;;;;15.32;90.99;97888.16;4990512;28;20041;-63
2021/08/28 06:29:55;;;;;;;5.20;3.47;;;;;;;15.42;90.04;97886.66;4988124;28;20026;-62
2021/08/28 06:32:20;;;;;;;4.75;3.22;;;;;;;15.33;90.40;97884.56;4988187;28;20039;-61
2021/08/28 06:34:46;;;;;;;6.07;3.20;;;;;;;15.22;90.46;97877.38;4990424;28;20042;-63
2021/08/28 06:37:11;;;;;;;4.38;3.33;;;;;;;15.44;89.29;97879.53;4990545;28;20640;-64
2021/08/28 06:39:36;;;;;;;7.65;3.42;;;;;;;15.17;90.44;97885.53;4989768;28;20056;-61
2021/08/28 06:42:02;;;;;;;4.55;3.70;;;;;;;15.00;89.66;97880.47;4987864;28;20042;-61
2021/08/28 06:44:27;;;;;;;5.25;3.83;;;;;;;15.27;89.19;97882.34;4988380;28;20030;-63
2021/08/28 06:46:53;;;;;;;4.20;3.42;;;;;;;15.54;88.32;97877.16;4989045;28;20046;-62
2021/08/28 06:49:18;;;;;;;6.68;3.70;;;;;;;15.27;89.67;97880.53;4990796;28;20049;-63
2021/08/28 06:51:44;;;;;;;4.03;3.13;;;;;;;15.28;88.90;97878.78;4990286;28;20618;-61
2021/08/28 06:54:09;;;;;;;6.90;3.60;;;;;;;15.30;89.77;97884.78;4990694;28;20808;-63
2021/08/28 06:56:34;;;;;;;5.78;3.00;;;;;;;15.32;89.11;97888.16;4990855;28;20046;-63
2021/08/28 06:59:00;;;;;;;5.32;3.50;;;;;;;15.34;89.84;97886.28;4989414;28;20030;-63
2021/08/28 07:01:25;;;;;;;5.05;3.30;;;;;;;15.39;89.06;97894.72;4989773;28;20451;-61
2021/08/28 07:03:51;;;;;;;5.00;2.90;;;;;;;15.31;90.51;97896.97;4989555;28;20369;-62
2021/08/28 07:06:16;;;;;;;4.88;3.17;;;;;;;15.54;89.37;97890.28;4984389;28;20038;-61
2021/08/28 07:08:42;;;;;;;4.47;3.10;;;;;;;15.15;90.31;97891.81;4989284;28;20033;-64
2021/08/28 07:11:09;;;;;;;4.05;3.00;;;;;;;15.54;89.34;97901.63;4986855;28;20097;-64
2021/08/28 07:13:35;;;;;;;4.25;3.05;;;;;;;15.39;89.12;97894.72;4986572;28;20041;-63
2021/08/28 07:16:00;;;;;;;4.50;3.45;;;;;;;15.28;88.78;97886.66;4986989;28;20034;-64
2021/08/28 07:18:25;;;;;;;5.25;3.00;;;;;;;15.75;87.56;97894.22;4986869;28;20717;-60
2021/08/28 07:20:52;;;;;;;5.28;2.95;;;;;;;16.16;85.07;97890.69;4988060;28;20041;-63
2021/08/28 07:23:17;;;;;;;7.20;3.00;;;;;;;16.51;85.64;97890.16;4987878;28;20113;-61
2021/08/28 07:25:42;;;;;;;3.70;2.90;;;;;;;16.49;84.99;97891.22;4986540;28;20038;-64
2021/08/28 07:28:11;;;;;;;4.15;3.17;;;;;;;16.67;83.21;97884.69;4987245;28;20373;-61
2021/08/28 07:30:37;;;;;;;4.10;3.00;;;;;;;16.09;85.02;97886.78;4988601;28;20116;-60
2021/08/28 07:33:03;;;;;;;3.80;2.97;;;;;;;16.58;84.48;97886.16;4987945;28;20039;-64
2021/08/28 07:35:32;;;;;;;4.97;3.00;;;;;;;17.23;80.80;97888.84;4988878;28;20595;-62
2021/08/28 07:37:58;;;;;;;5.63;2.90;;;;;;;16.84;82.47;97888.84;4987190;28;20026;-64
2021/08/28 07:40:25;;;;;;;9.30;3.30;;;;;;;16.86;82.90;97888.75;4986199;28;20022;-63
2021/08/28 07:42:55;;;;;;;4.93;3.20;;;;;;;16.58;81.80;97885.31;4990521;28;20018;-64
2021/08/28 07:45:21;;;;;;;6.57;3.40;;;;;;;16.45;82.82;97900.22;4989450;28;20412;-62
2021/08/28 07:47:47;;;;;;;5.97;3.30;;;;;;;16.20;84.66;97896.59;4989256;28;20014;-62
2021/08/28 07:50:12;;;;;;;6.35;3.50;;;;;;;16.55;83.38;97890.78;4989761;28;20034;-62
2021/08/28 07:52:40;;;;;;;4.10;2.65;;;;;;;16.23;82.43;97896.41;4986717;28;20036;-63
2021/08/28 07:55:06;;;;;;;5.60;3.30;;;;;;;15.90;84.22;97895.03;4985877;28;20037;-62
2021/08/28 07:57:32;;;;;;;4.32;2.70;;;;;;;16.04;84.75;97895.91;4986024;28;20021;-63
2021/08/28 07:59:57;;;;;;;6.03;3.00;;;;;;;16.42;82.67;97906.56;4993262;28;20101;-60
2021/08/28 08:02:22;;;;;;;5.30;3.00;;;;;;;16.30;82.48;97902.97;4987860;28;20393;-60
2021/08/28 08:04:47;;;;;;;3.60;2.90;;;;;;;15.91;83.81;97901.97;4987229;28;20034;-61
2021/08/28 08:07:13;;;;;;;3.55;2.78;;;;;;;16.16;83.21;97906.47;4991383;28;20053;-62
2021/08/28 08:09:38;;;;;;;3.92;2.95;;;;;;;16.57;83.22;97915.22;4986224;28;20100;-63
2021/08/28 08:12:04;;;;;;;5.75;2.80;;;;;;;16.87;81.35;97909.72;4986731;28;20137;-62
2021/08/28 08:14:29;;;;;;;4.32;3.10;;;;;;;16.59;83.09;97908.06;4988062;28;20031;-61
2021/08/28 08:16:54;;;;;;;5.72;3.25;;;;;;;17.42;78.05;97906.84;4986316;28;20034;-60
2021/08/28 08:19:20;;;;;;;4.97;2.90;;;;;;;17.03;79.61;97909.50;4987857;28;20026;-64
2021/08/28 08:21:45;;;;;;;5.80;2.70;;;;;;;17.59;77.74;97913.53;4986107;28;20050;-61
2021/08/28 08:24:10;;;;;;;3.75;2.55;;;;;;;18.23;76.00;97908.94;4997713;28;20440;-63
2021/08/28 08:26:36;;;;;;;7.03;2.47;;;;;;;18.44;73.76;97910.94;4987727;28;20038;-63
2021/08/28 08:29:01;;;;;;;6.25;2.25;;;;;;;19.02;71.74;97906.56;4986980;28;20034;-61
2021/08/28 08:31:26;;;;;;;3.17;2.22;;;;;;;18.54;72.48;97906.63;4989183;28;20518;-60
2021/08/28 08:33:52;;;;;;;3.58;2.10;;;;;;;17.94;74.12;97897.00;4985505;28;20385;-60
2021/08/28 08:36:19;;;;;;;5.55;2.10;;;;;;;18.26;73.14;97899.94;4984976;28;20157;-63
2021/08/28 08:38:45;;;;;;;5.50;2.30;;;;;;;18.36;73.45;97902.72;4986876;28;20044;-62
2021/08/28 08:41:12;;;;;;;6.63;2.60;;;;;;;18.75;70.43;97906.81;4985512;28;20038;-62
2021/08/28 08:43:37;;;;;;;5.00;2.45;;;;;;;17.73;73.26;97901.06;4985600;28;20036;-61
2021/08/28 08:46:07;;;;;;;4.55;2.22;;;;;;;18.64;72.34;97904.16;4987877;28;20035;-61
2021/08/28 08:48:33;;;;;;;3.63;2.25;;;;;;;18.77;71.37;97906.72;4987826;28;20029;-64
2021/08/28 08:51:01;;;;;;;3.28;2.00;;;;;;;20.32;66.77;97898.94;4994629;28;20052;-62
2021/08/28 08:53:29;;;;;;;3.95;2.15;;;;;;;19.91;63.27;97890.78;4987720;28;20026;-65
2021/08/28 08:55:55;;;;;;;4.15;1.90;;;;;;;20.84;62.19;97889.28;4988967;28;20034;-61
2021/08/28 08:58:20;;;;;;;4.30;2.00;;;;;;;20.61;61.40;97891.25;4991266;28;20135;-61
2021/08/28 09:00:46;;;;;;;4.70;1.80;;;;;;;21.04;61.66;97890.25;4991302;28;20066;-61
2021/08/28 09:03:12;;;;;;;3.28;1.75;;;;;;;20.79;63.22;97889.69;4988470;28;20086;-64
2021/08/28 09:05:37;;;;;;;4.40;2.00;;;;;;;20.02;65.27;97901.31;4987706;28;20057;-59
2021/08/28 09:08:03;;;;;;;4.82;1.90;;;;;;;19.33;67.23;97898.84;4990298;28;20034;-63
2021/08/28 09:10:29;;;;;;;3.30;2.10;;;;;;;19.71;65.24;97897.63;4989521;28;20062;-63
2021/08/28 09:13:10;;;;;;;7.65;2.10;;;;;;;19.14;66.13;97898.63;4988817;28;20038;-61
2021/08/28 09:15:54;;;;;;;4.90;1.90;;;;;;;19.49;67.30;97897.66;4988813;28;20173;-62
2021/08/28 09:18:19;;;;;;;3.88;2.00;;;;;;;19.42;66.26;97898.13;4991164;28;20014;-61
2021/08/28 09:20:45;;;;;;;3.80;2.08;;;;;;;19.82;65.36;97899.44;4987745;28;20041;-64
2021/08/28 09:23:15;;;;;;;4.88;2.22;;;;;;;20.67;62.37;97889.88;4998486;28;20022;-62
2021/08/28 09:25:44;;;;;;;2.95;1.85;;;;;;;20.52;63.54;97889.34;4987203;28;20069;-64
2021/08/28 09:28:11;;;;;;;3.30;1.90;;;;;;;21.08;62.20;97893.47;4989836;28;20067;-62
2021/08/28 09:30:40;;;;;;;4.55;2.03;;;;;;;22.65;56.08;97888.41;4988869;28;20045;-65
2021/08/28 09:33:08;;;;;;;4.25;2.10;;;;;;;22.99;55.23;97881.75;4990268;28;20482;-64
2021/08/28 09:35:48;;;;;;;4.85;1.90;;;;;;;25.39;49.33;97883.00;4989586;28;20127;-64
2021/08/28 09:38:17;;;;;;;4.43;1.70;;;;;;;25.74;48.99;97882.97;4989937;28;20112;-62
2021/08/28 09:40:46;;;;;;;3.80;1.90;;;;;;;24.73;48.75;97884.41;4989787;28;20038;-64
2021/08/28 09:43:16;;;;;;;3.55;1.88;;;;;;;27.05;45.21;97877.75;4988364;28;20511;-63
2021/08/28 09:45:44;;;;;;;3.72;1.80;;;;;;;23.96;51.50;97886.69;4988429;28;20382;-64
2021/08/28 09:48:12;;;;;;;3.30;1.90;;;;;;;22.49;50.72;97886.31;4988931;28;20034;-63
2021/08/28 09:50:43;;;;;;;4.47;1.90;;;;;;;22.17;55.47;97881.25;4988964;28;20070;-63
2021/08/28 09:53:14;;;;;;;4.18;1.95;;;;;;;24.62;50.58;97882.00;4988934;28;20470;-62
2021/08/28 09:55:43;;;;;;;3.13;1.70;;;;;;;22.50;51.44;97882.69;4988519;28;20043;-62
2021/08/28 09:58:10;;;;;;;3.08;1.80;;;;;;;21.93;51.75;97879.00;4988859;28;20031;-64
2021/08/28 10:00:45;;;;;;;2.92;1.90;;;;;;;22.35;54.64;97884.09;4988353;28;20113;-62
2021/08/28 10:03:11;;;;;;;4.55;1.77;;;;;;;21.80;56.06;97873.09;4990412;28;20105;-62
2021/08/28 10:05:42;;;;;;;3.35;1.80;;;;;;;21.59;55.98;97882.00;4989075;28;20038;-64
2021/08/28 10:08:09;;;;;;;3.27;2.10;;;;;;;20.57;59.79;97872.09;4990859;28;20124;-62
2021/08/28 10:10:36;;;;;;;5.78;2.03;;;;;;;21.47;58.51;97877.78;4989604;28;20034;-64
2021/08/28 10:13:04;;;;;;;9.40;2.00;;;;;;;20.65;61.33;97878.59;4990274;28;20026;-62
2021/08/28 10:15:32;;;;;;;5.05;1.83;;;;;;;20.52;62.02;97871.63;4987454;28;20125;-62
2021/08/28 10:17:59;;;;;;;3.03;1.83;;;;;;;20.49;63.08;97874.53;4990382;28;20598;-62
2021/08/28 10:20:27;;;;;;;3.00;2.00;;;;;;;20.87;63.17;97870.47;4989166;28;20017;-65
2021/08/28 10:22:55;;;;;;;4.43;2.00;;;;;;;21.09;62.60;97881.91;4988478;28;20030;-65
2021/08/28 10:25:22;;;;;;;3.80;2.20;;;;;;;20.01;67.92;97880.25;4988679;28;20014;-62
2021/08/28 10:27:49;;;;;;;3.40;2.10;;;;;;;19.05;69.87;97879.03;4988223;28;20026;-65
2021/08/28 10:30:16;;;;;;;4.93;2.30;;;;;;;20.13;70.48;97878.44;4989605;28;20044;-64
2021/08/28 10:32:42;;;;;;;7.20;2.13;;;;;;;19.29;68.58;97886.00;4991264;28;20021;-64
2021/08/28 10:35:11;;;;;;;4.35;2.10;;;;;;;18.99;69.85;97888.28;4989402;28;20045;-63
2021/08/28 10:37:36;;;;;;;5.78;2.22;;;;;;;18.93;70.91;97890.53;4988450;28;20040;-64
2021/08/28 10:40:10;;;;;;;3.72;2.60;;;;;;;18.09;73.96;97890.63;4986374;28;20030;-62
2021/08/28 10:42:40;;;;;;;3.63;2.50;;;;;;;18.44;75.02;97901.22;4990300;28;20050;-63
2021/08/28 10:45:08;;;;;;;5.90;2.50;;;;;;;17.96;76.18;97897.72;4988596;28;20042;-62
2021/08/28 10:47:33;;;;;;;4.38;2.30;;;;;;;17.83;75.95;97890.69;4987751;28;20053;-65
2021/08/28 10:50:10;;;;;;;3.80;2.55;;;;;;;18.14;73.35;97896.41;4987072;28;20078;-64
2021/08/28 10:52:38;;;;;;;4.00;2.47;;;;;;;17.96;74.55;97895.09;4987508;28;20061;-65
2021/08/28 10:55:03;;;;;;;4.03;2.60;;;;;;;17.90;74.72;97897.25;4989328;28;20057;-62
2021/08/28 10:57:30;;;;;;;3.95;2.45;;;;;;;17.88;74.14;97893.88;4985571;28;20054;-63
2021/08/28 11:00:04;;;;;;;3.75;2.60;;;;;;;17.95;77.57;97891.63;4989092;28;20036;-62
2021/08/28 11:02:58;;;;;;;4.55;2.70;;;;;;;18.37;78.96;97888.59;4986619;28;20125;-62
2021/08/28 11:05:29;;;;;;;4.25;2.50;;;;;;;18.57;71.99;97882.63;4988692;28;20539;-62
2021/08/28 11:08:14;;;;;;;3.42;2.50;;;;;;;18.45;70.93;97880.91;4987743;28;20034;-62
2021/08/28 11:10:39;;;;;;;3.30;2.53;;;;;;;19.70;72.20;97880.06;4989111;28;20224;-63
2021/08/28 11:13:06;;;;;;;4.63;2.38;;;;;;;20.01;67.13;97872.31;4985808;28;20043;-63
2021/08/28 11:15:34;;;;;;;3.65;2.17;;;;;;;21.01;66.63;97881.72;4987805;28;20038;-64
2021/08/28 11:18:03;;;;;;;3.90;2.05;;;;;;;21.77;60.53;97879.53;4989425;28;20033;-61
2021/08/28 11:20:46;;;;;;;3.47;2.00;;;;;;;22.40;60.25;97881.84;5021014;28;20068;-64
2021/08/28 11:23:18;;;;;;;4.50;1.73;;;;;;;20.83;59.22;97889.44;4990501;28;20902;-64
2021/08/28 11:25:51;;;;;;;;;;;;;;;20.16;63.88;97886.97;4987168;28;20038;-64
2021/08/28 11:28:20;;;;;;;2.63;1.80;;;;;;;19.03;66.09;97892.38;4987686;28;19910;-64
2021/08/28 11:30:48;;;;;;;6.35;2.30;;;;;;;18.64;70.30;97899.72;4988672;28;20038;-61
2021/08/28 11:33:16;;;;;;;2.95;1.92;;;;;;;18.73;73.00;97906.09;4987013;28;20680;-64